createdAt,value
2018-12-20T00:00:43.354Z,100690.48
2018-12-20T00:03:22.710Z,100680.67
2018-12-20T00:06:08.126Z,100683.47
2018-12-20T00:08:40.608Z,100684.52
2018-12-20T00:11:11.419Z,100683.19
2018-12-20T00:13:44.728Z,100685.32
2018-12-20T00:16:23.930Z,100690.08
2018-12-20T00:18:54.238Z,100691.62
2018-12-20T00:21:34.840Z,100694.70
2018-12-20T00:24:14.544Z,100700.78
2018-12-20T00:26:48.052Z,100692.14
2018-12-20T00:29:27.634Z,100691.41
2018-12-20T00:32:06.636Z,100695.41
2018-12-20T00:34:38.081Z,100689.14
2018-12-20T00:37:09.208Z,100687.08
2018-12-20T00:39:46.998Z,100692.93
2018-12-20T00:42:25.952Z,100691.28
2018-12-20T00:45:04.796Z,100687.70
2018-12-20T00:47:39.832Z,100687.17
2018-12-20T00:50:11.158Z,100688.20
2018-12-20T00:52:43.237Z,100683.38
2018-12-20T00:55:22.882Z,100685.34
2018-12-20T00:57:56.315Z,100682.91
2018-12-20T01:00:28.159Z,100689.26
2018-12-20T01:03:06.730Z,100687.17
2018-12-20T01:05:38.106Z,100690.78
2018-12-20T01:08:07.969Z,100683.25
2018-12-20T01:10:37.813Z,100692.22
2018-12-20T01:13:16.677Z,100686.22
2018-12-20T01:18:43.213Z,100684.69
2018-12-20T01:21:22.275Z,100684.91
2018-12-20T01:23:56.201Z,100684.49
2018-12-20T01:26:27.395Z,100685.42
2018-12-20T01:28:57.252Z,100683.86
2018-12-20T01:31:47.289Z,100690.58
2018-12-20T01:34:19.317Z,100682.68
2018-12-20T01:36:51.272Z,100685.79
2018-12-20T01:39:25.304Z,100682.20
2018-12-20T01:42:04.000Z,100687.44
2018-12-20T01:44:53.328Z,100684.53
2018-12-20T01:47:19.769Z,100685.77
2018-12-20T01:49:58.286Z,100679.78
2018-12-20T01:52:36.300Z,100683.39
2018-12-20T01:55:15.479Z,100681.33
2018-12-20T01:57:47.512Z,100682.49
2018-12-20T02:00:24.275Z,100678.55
2018-12-20T02:03:02.351Z,100690.77
2018-12-20T02:05:40.317Z,100684.86
2018-12-20T02:08:12.754Z,100687.74
2018-12-20T02:10:44.028Z,100687.44
2018-12-20T02:13:22.953Z,100686.59
2018-12-20T02:16:02.723Z,100688.45
2018-12-20T02:18:35.426Z,100690.33
2018-12-20T02:21:14.188Z,100689.09
2018-12-20T02:23:50.249Z,100676.92
2018-12-20T02:26:21.699Z,100681.69
2018-12-20T02:28:51.550Z,100682.28
2018-12-20T02:31:32.406Z,100682.19
2018-12-20T02:34:04.342Z,100682.17
2018-12-20T02:36:45.209Z,100678.27
2018-12-20T02:39:23.154Z,100669.58
2018-12-20T02:42:01.660Z,100668.15
2018-12-20T02:44:41.651Z,100664.94
2018-12-20T02:47:14.149Z,100665.16
2018-12-20T02:49:53.722Z,100670.52
2018-12-20T02:52:24.962Z,100663.63
2018-12-20T02:55:03.724Z,100661.44
2018-12-20T02:57:36.220Z,100653.62
2018-12-20T03:00:14.693Z,100656.61
2018-12-20T03:02:52.403Z,100645.98
2018-12-20T03:05:31.326Z,100644.86
2018-12-20T03:08:09.366Z,100642.95
2018-12-20T03:10:47.328Z,100638.78
2018-12-20T03:13:18.551Z,100639.69
2018-12-20T03:15:52.926Z,100636.00
2018-12-20T03:18:26.737Z,100643.61
2018-12-20T03:21:08.852Z,100639.19
2018-12-20T03:23:41.520Z,100638.34
2018-12-20T03:26:14.425Z,100637.72
2018-12-20T03:28:44.106Z,100641.55
2018-12-20T03:31:14.318Z,100636.28
2018-12-20T03:33:52.911Z,100641.62
2018-12-20T03:36:24.514Z,100637.09
2018-12-20T03:38:56.403Z,100633.86
2018-12-20T03:41:29.638Z,100637.59
2018-12-20T03:44:09.436Z,100632.83
2018-12-20T03:46:47.191Z,100634.52
2018-12-20T03:49:18.447Z,100631.39
2018-12-20T03:51:59.945Z,100630.17
2018-12-20T03:54:31.330Z,100632.89
2018-12-20T03:57:03.338Z,100627.90
2018-12-20T03:59:42.427Z,100636.56
2018-12-20T04:02:22.326Z,100638.22
2018-12-20T04:05:00.526Z,100636.00
2018-12-20T04:07:32.775Z,100635.20
2018-12-20T04:10:06.707Z,100637.16
2018-12-20T04:12:45.409Z,100639.56
2018-12-20T04:15:23.629Z,100638.47
2018-12-20T04:17:53.370Z,100631.01
2018-12-20T04:20:28.944Z,100641.06
2018-12-20T04:23:07.822Z,100634.88
2018-12-20T04:25:41.787Z,100629.45
2018-12-20T04:28:14.306Z,100636.50
2018-12-20T04:30:46.437Z,100640.62
2018-12-20T04:33:26.187Z,100637.00
2018-12-20T04:35:58.594Z,100637.72
2018-12-20T04:38:30.984Z,100636.81
2018-12-20T04:41:14.268Z,100640.34
2018-12-20T04:43:47.627Z,100646.95
2018-12-20T04:46:26.507Z,100648.08
2018-12-20T04:49:05.525Z,100653.87
2018-12-20T04:51:43.778Z,100653.56
2018-12-20T04:54:22.662Z,100656.65
2018-12-20T04:56:55.557Z,100648.28
2018-12-20T04:59:29.764Z,100644.45
2018-12-20T05:02:08.652Z,100651.13
2018-12-20T05:04:46.884Z,100653.84
2018-12-20T05:07:18.274Z,100647.82
2018-12-20T05:09:57.384Z,100648.70
2018-12-20T05:12:35.983Z,100646.77
2018-12-20T05:15:14.206Z,100649.64
2018-12-20T05:17:45.204Z,100647.37
2018-12-20T05:20:23.124Z,100659.12
2018-12-20T05:23:01.650Z,100658.73
2018-12-20T05:25:32.936Z,100660.36
2018-12-20T05:28:02.841Z,100659.86
2018-12-20T05:30:34.137Z,100659.62
2018-12-20T05:36:06.784Z,100671.61
2018-12-20T05:38:45.313Z,100673.38
2018-12-20T05:41:24.350Z,100676.05
2018-12-20T05:44:06.127Z,100666.67
2018-12-20T05:52:33.060Z,100670.98
2018-12-20T05:58:00.804Z,100672.03
2018-12-20T06:00:31.986Z,100679.48
2018-12-20T06:03:16.271Z,100685.44
2018-12-20T06:05:58.506Z,100681.61
2018-12-20T06:08:30.643Z,100692.53
2018-12-20T06:11:10.477Z,100693.88
2018-12-20T06:13:42.024Z,100691.41
2018-12-20T06:19:14.107Z,100695.55
2018-12-20T06:21:44.120Z,100704.38
2018-12-20T06:24:16.355Z,100702.41
2018-12-20T06:26:56.368Z,100709.72
2018-12-20T06:29:32.936Z,100702.24
2018-12-20T06:32:12.081Z,100701.05
2018-12-20T06:34:49.952Z,100701.28
2018-12-20T06:37:23.103Z,100708.32
2018-12-20T06:40:02.819Z,100701.84
2018-12-20T06:42:42.536Z,100704.92
2018-12-20T06:45:21.662Z,100705.83
2018-12-20T06:47:56.758Z,100701.52
2018-12-20T06:50:36.953Z,100709.55
2018-12-20T06:53:16.106Z,100705.22
2018-12-20T06:55:55.924Z,100704.28
2018-12-20T07:01:23.849Z,100704.05
2018-12-20T07:03:57.741Z,100705.83
2018-12-20T07:06:31.801Z,100704.30
2018-12-20T07:09:10.895Z,100711.58
2018-12-20T07:11:52.885Z,100714.47
2018-12-20T07:14:23.630Z,100711.25
2018-12-20T07:17:02.523Z,100713.11
2018-12-20T07:19:33.408Z,100713.62
2018-12-20T07:22:12.197Z,100708.31
2018-12-20T07:24:45.746Z,100715.31
2018-12-20T07:27:17.074Z,100708.61
2018-12-20T07:29:55.875Z,100705.62
2018-12-20T07:32:34.790Z,100713.38
2018-12-20T07:35:13.812Z,100710.38
2018-12-20T07:37:45.324Z,100720.08
2018-12-20T07:40:24.922Z,100718.53
2018-12-20T07:43:04.162Z,100716.22
2018-12-20T07:45:42.184Z,100727.57
2018-12-20T07:48:13.545Z,100729.94
2018-12-20T07:50:52.659Z,100728.30
2018-12-20T07:53:23.691Z,100732.19
2018-12-20T07:56:02.529Z,100727.56
2018-12-20T07:58:33.878Z,100727.48
2018-12-20T08:01:26.508Z,100730.61
2018-12-20T08:04:05.082Z,100732.39
2018-12-20T08:06:36.225Z,100733.96
2018-12-20T08:09:14.466Z,100737.45
2018-12-20T08:11:47.721Z,100739.92
2018-12-20T08:14:28.368Z,100731.99
2018-12-20T08:17:01.358Z,100735.72
2018-12-20T08:19:41.036Z,100739.92
2018-12-20T08:22:20.186Z,100740.84
2018-12-20T08:24:54.172Z,100740.02
2018-12-20T08:27:25.533Z,100738.35
2018-12-20T08:30:10.854Z,100743.83
2018-12-20T08:32:44.118Z,100754.66
2018-12-20T08:35:22.938Z,100750.56
2018-12-20T08:38:00.954Z,100756.52
2018-12-20T08:40:39.670Z,100751.87
2018-12-20T08:43:17.829Z,100760.33
2018-12-20T08:45:55.752Z,100764.64
2018-12-20T08:48:28.278Z,100764.64
2018-12-20T08:51:06.774Z,100765.88
2018-12-20T08:53:45.795Z,100775.38
2018-12-20T08:56:23.806Z,100768.59
2018-12-20T08:59:01.807Z,100773.08
2018-12-20T09:01:35.715Z,100774.14
2018-12-20T09:04:13.930Z,100771.86
2018-12-20T09:06:52.075Z,100770.70
2018-12-20T09:09:30.069Z,100776.08
2018-12-20T09:15:02.222Z,100781.05
2018-12-20T09:17:33.371Z,100784.44
2018-12-20T09:20:11.322Z,100785.19
2018-12-20T09:22:42.752Z,100779.30
2018-12-20T09:25:20.672Z,100780.30
2018-12-20T09:27:51.918Z,100784.45
2018-12-20T09:30:30.670Z,100785.48
2018-12-20T09:33:05.387Z,100784.12
2018-12-20T09:35:45.420Z,100785.34
2018-12-20T09:38:20.503Z,100777.20
2018-12-20T09:41:01.091Z,100784.61
2018-12-20T09:43:33.902Z,100780.03
2018-12-20T09:46:06.094Z,100786.98
2018-12-20T09:48:38.272Z,100783.19
2018-12-20T09:51:16.904Z,100783.08
2018-12-20T09:53:54.824Z,100779.53
2018-12-20T09:56:29.750Z,100782.83
2018-12-20T09:59:01.907Z,100782.06
2018-12-20T10:01:40.508Z,100778.50
2018-12-20T10:04:19.570Z,100781.06
2018-12-20T10:06:57.535Z,100782.28
2018-12-20T10:09:35.685Z,100780.34
2018-12-20T10:12:13.773Z,100777.47
2018-12-20T10:14:52.815Z,100774.70
2018-12-20T10:17:24.349Z,100777.56
2018-12-20T10:20:02.132Z,100782.23
2018-12-20T10:22:41.280Z,100775.22
2018-12-20T10:25:19.220Z,100773.89
2018-12-20T10:27:51.601Z,100776.22
2018-12-20T10:30:22.662Z,100777.44
2018-12-20T10:33:00.455Z,100772.57
2018-12-20T10:35:38.569Z,100775.56
2018-12-20T10:38:09.751Z,100776.20
2018-12-20T10:40:41.792Z,100775.87
2018-12-20T10:43:22.255Z,100773.70
2018-12-20T10:46:05.468Z,100768.33
2018-12-20T10:48:37.757Z,100771.86
2018-12-20T10:51:17.332Z,100764.39
2018-12-20T10:53:57.691Z,100768.05
2018-12-20T10:56:50.830Z,100761.55
2018-12-20T10:59:25.837Z,100764.73
2018-12-20T11:02:10.535Z,100761.77
2018-12-20T11:04:54.492Z,100755.91
2018-12-20T11:07:34.365Z,100753.94
2018-12-20T11:10:19.467Z,100750.78
2018-12-20T11:13:00.917Z,100747.81
2018-12-20T11:15:52.394Z,100755.24
2018-12-20T11:18:23.576Z,100744.28
2018-12-20T11:21:03.510Z,100745.27
2018-12-20T11:23:36.927Z,100739.53
2018-12-20T11:26:22.540Z,100735.82
2018-12-20T11:28:56.240Z,100733.33
2018-12-20T11:31:45.049Z,100731.69
2018-12-20T11:34:19.059Z,100731.22
2018-12-20T11:36:57.985Z,100734.17
2018-12-20T11:39:36.098Z,100717.58
2018-12-20T11:42:14.202Z,100730.27
2018-12-20T11:44:54.039Z,100725.62
2018-12-20T11:47:27.306Z,100736.95
2018-12-20T11:50:12.431Z,100733.45
2018-12-20T11:52:59.346Z,100726.97
2018-12-20T11:55:39.675Z,100724.01
2018-12-20T11:58:19.723Z,100717.39
2018-12-20T12:00:58.797Z,100716.27
2018-12-20T12:03:34.807Z,100706.85
2018-12-20T12:06:14.875Z,100712.69
2018-12-20T12:08:52.862Z,100711.66
2018-12-20T12:11:32.742Z,100713.22
2018-12-20T12:14:11.550Z,100713.77
2018-12-20T12:16:49.703Z,100702.79
2018-12-20T12:19:30.372Z,100704.91
2018-12-20T12:22:00.808Z,100705.37
2018-12-20T12:24:37.543Z,100708.25
2018-12-20T12:27:08.818Z,100712.45
2018-12-20T12:32:44.274Z,100704.82
2018-12-20T12:35:23.898Z,100707.23
2018-12-20T12:38:03.860Z,100706.41
2018-12-20T12:40:42.258Z,100702.05
2018-12-20T12:43:21.382Z,100710.30
2018-12-20T12:45:59.387Z,100712.20
2018-12-20T12:48:31.629Z,100715.39
2018-12-20T12:51:09.452Z,100710.61
2018-12-20T12:53:48.696Z,100707.93
2018-12-20T12:56:23.863Z,100717.50
2018-12-20T12:58:59.070Z,100710.95
2018-12-20T13:01:30.106Z,100710.47
2018-12-20T13:04:08.956Z,100710.47
2018-12-20T13:06:48.026Z,100712.04
2018-12-20T13:09:19.694Z,100704.82
2018-12-20T13:11:57.780Z,100713.91
2018-12-20T13:14:35.867Z,100708.15
2018-12-20T13:17:08.365Z,100707.87
2018-12-20T13:19:39.375Z,100701.47
2018-12-20T13:22:18.182Z,100704.20
2018-12-20T13:24:56.285Z,100703.98
2018-12-20T13:27:28.594Z,100696.85
2018-12-20T13:30:09.336Z,100702.50
2018-12-20T13:32:41.838Z,100705.97
2018-12-20T13:35:12.751Z,100701.05
2018-12-20T13:37:43.897Z,100701.06
2018-12-20T13:40:17.918Z,100702.20
2018-12-20T13:42:55.887Z,100699.17
2018-12-20T13:45:34.914Z,100697.02
2018-12-20T13:48:25.896Z,100703.73
2018-12-20T13:51:10.411Z,100709.58
2018-12-20T13:53:43.006Z,100701.41
2018-12-20T13:56:14.162Z,100713.45
2018-12-20T13:58:45.237Z,100717.38
2018-12-20T14:01:18.255Z,100710.19
2018-12-20T14:03:57.242Z,100722.59
2018-12-20T14:06:36.208Z,100715.78
2018-12-20T14:09:07.964Z,100721.14
2018-12-20T14:11:52.659Z,100725.80
2018-12-20T14:17:20.018Z,100726.03
2018-12-20T14:19:53.015Z,100716.45
2018-12-20T14:22:41.912Z,100723.26
2018-12-20T14:25:17.053Z,100723.25
2018-12-20T14:27:55.892Z,100726.29
2018-12-20T14:30:35.034Z,100730.94
2018-12-20T14:33:14.054Z,100729.45
2018-12-20T14:35:52.976Z,100725.67
2018-12-20T14:38:25.368Z,100726.27
2018-12-20T14:41:04.250Z,100727.36
2018-12-20T14:43:43.414Z,100732.19
2018-12-20T14:46:22.478Z,100731.79
2018-12-20T14:48:54.643Z,100730.17
2018-12-20T14:51:33.650Z,100733.84
2018-12-20T14:54:12.567Z,100732.88
2018-12-20T14:56:47.422Z,100732.50
2018-12-20T14:59:18.698Z,100736.81
2018-12-20T15:01:54.625Z,100732.55
2018-12-20T15:04:27.155Z,100736.50
2018-12-20T15:06:57.958Z,100739.64
2018-12-20T15:09:45.255Z,100740.44
2018-12-20T15:15:21.439Z,100740.38
2018-12-20T15:17:59.638Z,100733.78
2018-12-20T15:20:40.722Z,100735.31
2018-12-20T15:23:18.748Z,100737.39
2018-12-20T15:25:57.923Z,100744.95
2018-12-20T15:28:30.540Z,100747.05
2018-12-20T15:31:08.408Z,100750.25
2018-12-20T15:33:47.265Z,100750.32
2018-12-20T15:36:29.887Z,100763.50
2018-12-20T15:39:00.535Z,100762.80
2018-12-20T15:41:37.254Z,100754.08
2018-12-20T15:44:15.166Z,100753.27
2018-12-20T15:46:49.134Z,100757.94
2018-12-20T15:49:26.859Z,100756.46
2018-12-20T15:52:05.808Z,100759.61
2018-12-20T15:57:31.358Z,100759.55
2018-12-20T16:00:05.338Z,100761.91
2018-12-20T16:02:36.537Z,100766.23
2018-12-20T16:05:14.309Z,100768.63
2018-12-20T16:08:01.808Z,100769.20
2018-12-20T16:10:32.709Z,100773.90
2018-12-20T16:13:12.421Z,100775.44
2018-12-20T16:15:50.406Z,100777.68
2018-12-20T16:18:22.721Z,100782.91
2018-12-20T16:23:54.250Z,100787.02
2018-12-20T16:26:33.498Z,100794.16
2018-12-20T16:29:04.647Z,100788.27
2018-12-20T16:31:35.598Z,100789.11
2018-12-20T16:34:15.502Z,100797.85
2018-12-20T16:36:53.939Z,100794.69
2018-12-20T16:39:34.395Z,100801.30
2018-12-20T16:42:10.346Z,100809.56
2018-12-20T16:44:49.361Z,100809.68
2018-12-20T16:47:24.324Z,100806.67
2018-12-20T16:49:56.708Z,100807.20
2018-12-20T16:52:32.631Z,100813.88
2018-12-20T16:55:11.668Z,100818.73
2018-12-20T16:57:47.536Z,100816.66
2018-12-20T17:00:26.446Z,100816.90
2018-12-20T17:03:15.896Z,100813.27
2018-12-20T17:05:47.154Z,100808.73
2018-12-20T17:08:19.354Z,100819.33
2018-12-20T17:10:50.491Z,100818.94
2018-12-20T17:13:29.508Z,100816.70
2018-12-20T17:16:09.574Z,100814.33
2018-12-20T17:18:40.530Z,100807.00
2018-12-20T17:21:11.483Z,100805.23
2018-12-20T17:23:42.537Z,100817.16
2018-12-20T17:26:21.210Z,100813.95
2018-12-20T17:28:56.226Z,100807.06
2018-12-20T17:31:36.995Z,100809.66
2018-12-20T17:34:11.092Z,100805.52
2018-12-20T17:36:58.424Z,100805.78
2018-12-20T17:39:32.294Z,100814.81
2018-12-20T17:42:14.968Z,100809.64
2018-12-20T17:47:40.670Z,100803.36
2018-12-20T17:53:13.214Z,100814.71
2018-12-20T17:55:52.199Z,100808.02
2018-12-20T17:58:25.563Z,100816.44
2018-12-20T18:00:58.650Z,100816.47
2018-12-20T18:03:38.259Z,100812.09
2018-12-20T18:06:17.059Z,100806.14
2018-12-20T18:08:49.595Z,100799.38
2018-12-20T18:11:25.398Z,100792.36
2018-12-20T18:14:07.010Z,100796.91
2018-12-20T18:16:41.452Z,100801.98
2018-12-20T18:19:20.454Z,100793.84
2018-12-20T18:22:03.074Z,100798.36
2018-12-20T18:24:33.822Z,100802.25
2018-12-20T18:27:05.894Z,100802.37
2018-12-20T18:29:44.976Z,100797.34
2018-12-20T18:32:23.923Z,100800.42
2018-12-20T18:35:02.821Z,100798.78
2018-12-20T18:37:42.184Z,100800.42
2018-12-20T18:40:21.204Z,100796.39
2018-12-20T18:43:01.724Z,100798.69
2018-12-20T18:48:32.152Z,100805.38
2018-12-20T18:51:04.815Z,100805.58
2018-12-20T18:56:31.482Z,100806.59
2018-12-20T18:59:04.770Z,100805.12
2018-12-20T19:01:36.838Z,100810.28
2018-12-20T19:04:08.833Z,100812.05
2018-12-20T19:06:51.510Z,100816.20
2018-12-20T19:09:40.019Z,100815.37
2018-12-20T19:12:17.748Z,100821.97
2018-12-20T19:14:56.770Z,100822.92
2018-12-20T19:17:43.838Z,100819.60
2018-12-20T19:20:22.811Z,100819.60
2018-12-20T19:23:01.548Z,100819.11
2018-12-20T19:25:47.108Z,100816.51
2018-12-20T19:28:20.115Z,100820.53
2018-12-20T19:30:58.826Z,100829.94
2018-12-20T19:33:38.152Z,100829.31
2018-12-20T19:36:17.369Z,100828.08
2018-12-20T19:38:49.721Z,100820.83
2018-12-20T19:41:25.410Z,100820.12
2018-12-20T19:44:04.356Z,100825.08
2018-12-20T19:46:46.894Z,100833.75
2018-12-20T19:49:25.353Z,100828.50
2018-12-20T19:52:16.581Z,100829.42
2018-12-20T19:54:51.510Z,100821.39
2018-12-20T19:57:31.476Z,100819.42
2018-12-20T20:00:01.111Z,100823.55
2018-12-20T20:02:41.829Z,100824.06
2018-12-20T20:05:20.778Z,100827.03
2018-12-20T20:07:53.091Z,100820.77
2018-12-20T20:10:40.386Z,100805.58
2018-12-20T20:13:19.271Z,100804.25
2018-12-20T20:15:47.475Z,100797.84
2018-12-20T20:18:18.647Z,100804.05
2018-12-20T20:20:58.386Z,100801.16
2018-12-20T20:23:38.502Z,100799.72
2018-12-20T20:26:29.782Z,100802.19
2018-12-20T20:29:01.913Z,100792.17
2018-12-20T20:34:27.148Z,100792.28
2018-12-20T20:36:59.269Z,100792.38
2018-12-20T20:42:33.505Z,100797.44
2018-12-20T20:45:13.656Z,100799.91
2018-12-20T20:47:49.934Z,100796.39
2018-12-20T20:50:29.156Z,100794.42
2018-12-20T20:53:00.762Z,100798.97
2018-12-20T20:55:33.846Z,100805.44
2018-12-20T20:58:06.063Z,100807.83
2018-12-20T21:00:51.463Z,100802.16
2018-12-20T21:03:30.866Z,100798.05
2018-12-20T21:06:15.367Z,100803.29
2018-12-20T21:09:08.812Z,100804.55
2018-12-20T21:11:55.313Z,100802.58
2018-12-20T21:14:36.535Z,100805.12
2018-12-20T21:17:16.658Z,100809.05
2018-12-20T21:19:54.856Z,100811.58
2018-12-20T21:22:42.929Z,100810.17
2018-12-20T21:25:20.800Z,100808.06
2018-12-20T21:27:54.910Z,100804.48
2018-12-20T21:30:46.730Z,100799.82
2018-12-20T21:33:24.668Z,100799.19
2018-12-20T21:35:58.764Z,100802.62
2018-12-20T21:38:30.886Z,100801.05
2018-12-20T21:41:08.757Z,100806.95
2018-12-20T21:43:46.754Z,100818.61
2018-12-20T21:46:25.751Z,100810.13
2018-12-20T21:48:58.194Z,100800.83
2018-12-20T21:51:31.998Z,100804.77
2018-12-20T21:54:10.166Z,100797.67
2018-12-20T21:56:49.409Z,100801.47
2018-12-20T21:59:28.340Z,100799.83
2018-12-20T22:02:15.247Z,100802.31
2018-12-20T22:04:59.423Z,100797.76
2018-12-20T22:07:33.838Z,100796.63
2018-12-20T22:10:13.039Z,100804.25
2018-12-20T22:12:49.094Z,100802.50
2018-12-20T22:15:28.374Z,100798.78
2018-12-20T22:18:01.130Z,100804.69
2018-12-20T22:20:35.201Z,100799.53
2018-12-20T22:23:14.150Z,100794.04
2018-12-20T22:26:03.113Z,100793.11
2018-12-20T22:28:36.434Z,100798.08
2018-12-20T22:31:22.215Z,100797.78
2018-12-20T22:33:58.554Z,100796.53
2018-12-20T22:42:19.458Z,100791.89
2018-12-20T22:44:59.201Z,100793.55
2018-12-20T22:47:31.772Z,100790.34
2018-12-20T22:50:06.571Z,100789.30
2018-12-20T22:52:37.414Z,100790.65
2018-12-20T22:55:17.153Z,100779.92
2018-12-20T22:57:49.542Z,100776.31
2018-12-20T23:00:20.591Z,100774.23
2018-12-20T23:03:00.294Z,100771.15
2018-12-20T23:05:39.455Z,100772.17
2018-12-20T23:08:20.822Z,100771.46
2018-12-20T23:10:51.553Z,100765.77
2018-12-20T23:13:23.522Z,100766.70
2018-12-20T23:15:55.814Z,100767.52
2018-12-20T23:18:27.856Z,100766.61
2018-12-20T23:21:05.379Z,100754.12
2018-12-20T23:23:44.708Z,100749.77
2018-12-20T23:26:16.895Z,100748.84
2018-12-20T23:28:53.495Z,100753.48
2018-12-20T23:31:44.513Z,100738.73
2018-12-20T23:34:18.431Z,100731.94
2018-12-20T23:36:50.933Z,100735.74
2018-12-20T23:39:21.858Z,100736.34
2018-12-20T23:42:00.875Z,100740.56
2018-12-20T23:44:34.406Z,100744.98
2018-12-20T23:47:06.478Z,100743.36
2018-12-20T23:49:53.620Z,100739.30
2018-12-20T23:52:31.462Z,100734.91
2018-12-20T23:55:09.366Z,100728.39
